createdAt,value
2019-02-05T00:02:06.485Z,99973.72
2019-02-05T00:04:33.181Z,99975.91
2019-02-05T00:07:00.359Z,99972.93
2019-02-05T00:09:27.390Z,99975.08
2019-02-05T00:11:54.130Z,99972.80
2019-02-05T00:14:21.571Z,99963.90
2019-02-05T00:16:48.660Z,99957.69
2019-02-05T00:19:15.401Z,99954.86
2019-02-05T00:21:42.266Z,99956.91
2019-02-05T00:24:09.141Z,99956.19
2019-02-05T00:26:35.861Z,99981.41
2019-02-05T00:29:02.620Z,99947.52
2019-02-05T00:31:31.814Z,99947.84
2019-02-05T00:33:58.549Z,99954.24
2019-02-05T00:36:25.494Z,99952.72
2019-02-05T00:38:52.244Z,99951.91
2019-02-05T00:41:21.245Z,99945.80
2019-02-05T00:43:48.030Z,99938.22
2019-02-05T00:46:14.752Z,99933.36
2019-02-05T00:48:41.514Z,99938.06
2019-02-05T00:51:08.246Z,99946.33
2019-02-05T00:53:35.122Z,99946.09
2019-02-05T00:56:01.921Z,99946.09
2019-02-05T00:58:29.164Z,99941.09
2019-02-05T01:00:55.946Z,99941.09
2019-02-05T01:03:22.671Z,99945.33
2019-02-05T01:05:49.420Z,99940.28
2019-02-05T01:08:16.657Z,99952.25
2019-02-05T01:10:43.379Z,99941.36
2019-02-05T01:13:10.205Z,99936.64
2019-02-05T01:15:37.078Z,99935.04
2019-02-05T01:18:03.792Z,99925.23
2019-02-05T01:20:31.026Z,99918.73
2019-02-05T01:23:00.612Z,99925.77
2019-02-05T01:25:28.886Z,99921.98
2019-02-05T01:27:55.666Z,99917.22
2019-02-05T01:30:24.085Z,99927.09
2019-02-05T01:32:53.182Z,99923.24
2019-02-05T01:35:19.951Z,99920.63
2019-02-05T01:37:47.931Z,99927.32
2019-02-05T01:40:16.462Z,99919.82
2019-02-05T01:42:44.026Z,99922.43
2019-02-05T01:45:13.729Z,99925.59
2019-02-05T01:47:40.565Z,99920.31
2019-02-05T01:50:07.724Z,99926.84
2019-02-05T01:52:34.478Z,99921.30
2019-02-05T01:55:01.303Z,99912.23
2019-02-05T01:57:28.050Z,99908.78
2019-02-05T01:59:55.917Z,99907.83
2019-02-05T02:02:22.666Z,99900.76
2019-02-05T02:04:49.406Z,99905.36
2019-02-05T02:07:16.146Z,99906.83
2019-02-05T02:09:42.953Z,99906.08
2019-02-05T02:12:10.046Z,99905.98
2019-02-05T02:14:36.820Z,99902.13
2019-02-05T02:17:03.690Z,99902.92
2019-02-05T02:19:30.940Z,99904.80
2019-02-05T02:21:57.684Z,99914.66
2019-02-05T02:24:24.402Z,99920.02
2019-02-05T02:26:52.342Z,99920.92
2019-02-05T02:29:22.452Z,99920.62
2019-02-05T02:31:49.313Z,99924.42
2019-02-05T02:34:16.023Z,99925.23
2019-02-05T02:36:47.010Z,99914.14
2019-02-05T02:39:13.749Z,99905.29
2019-02-05T02:41:41.983Z,99923.25
2019-02-05T02:44:08.727Z,99919.13
2019-02-05T02:46:35.585Z,99916.73
2019-02-05T02:49:02.482Z,99926.89
2019-02-05T02:51:29.233Z,99927.78
2019-02-05T02:53:56.686Z,99914.63
2019-02-05T02:56:23.952Z,99914.75
2019-02-05T02:58:51.690Z,99916.90
2019-02-05T03:01:18.450Z,99914.41
2019-02-05T03:03:45.331Z,99898.58
2019-02-05T03:06:12.206Z,99908.91
2019-02-05T03:08:39.379Z,99906.22
2019-02-05T03:11:06.080Z,99904.39
2019-02-05T03:13:33.299Z,99904.59
2019-02-05T03:16:00.059Z,99907.14
2019-02-05T03:18:26.827Z,99904.42
2019-02-05T03:20:53.587Z,99909.39
2019-02-05T03:23:20.728Z,99917.73
2019-02-05T03:25:47.460Z,99931.42
2019-02-05T03:28:14.201Z,99939.27
2019-02-05T03:30:40.960Z,99926.64
2019-02-05T03:33:07.684Z,99922.94
2019-02-05T03:35:34.975Z,99922.25
2019-02-05T03:38:03.846Z,99920.42
2019-02-05T03:41:05.926Z,99933.00
2019-02-05T03:43:36.875Z,99929.19
2019-02-05T03:46:05.445Z,99924.33
2019-02-05T03:48:32.985Z,99923.64
2019-02-05T03:51:07.061Z,99923.19
2019-02-05T03:53:35.428Z,99918.84
2019-02-05T03:56:36.765Z,99922.22
2019-02-05T03:59:32.839Z,99922.14
2019-02-05T04:02:08.034Z,99922.41
2019-02-05T04:05:37.853Z,99915.31
2019-02-05T04:08:55.743Z,99934.30
2019-02-05T04:12:02.884Z,99928.81
2019-02-05T04:15:20.299Z,99929.95
2019-02-05T04:18:13.601Z,99928.05
2019-02-05T04:21:24.947Z,99934.74
2019-02-05T04:24:48.665Z,99932.95
2019-02-05T04:27:43.932Z,99937.57
2019-02-05T04:30:31.469Z,99937.14
2019-02-05T04:33:29.259Z,99940.48
2019-02-05T04:36:19.729Z,99943.31
2019-02-05T04:38:57.569Z,99948.71
2019-02-05T04:42:05.720Z,99947.66
2019-02-05T04:45:06.204Z,99947.61
2019-02-05T04:48:27.353Z,99956.42
2019-02-05T04:51:04.657Z,99954.78
2019-02-05T04:54:22.996Z,99949.20
2019-02-05T04:57:19.447Z,99950.05
2019-02-05T05:00:33.455Z,99946.81
2019-02-05T05:03:17.255Z,99949.20
2019-02-05T05:06:19.740Z,99950.50
2019-02-05T05:09:23.329Z,99947.86
2019-02-05T05:11:50.045Z,99959.23
2019-02-05T05:14:16.894Z,99958.56
2019-02-05T05:16:46.241Z,99965.17
2019-02-05T05:19:13.103Z,99967.40
2019-02-05T05:21:39.842Z,99964.50
2019-02-05T05:24:06.725Z,99950.23
2019-02-05T05:26:34.098Z,99951.58
2019-02-05T05:29:01.189Z,99957.59
2019-02-05T05:31:28.081Z,99959.61
2019-02-05T05:33:54.798Z,99961.05
2019-02-05T05:36:21.540Z,99955.29
2019-02-05T05:38:48.338Z,99953.31
2019-02-05T05:41:15.659Z,99944.41
2019-02-05T05:43:42.456Z,99955.84
2019-02-05T05:46:09.279Z,99963.98
2019-02-05T05:48:36.028Z,99952.99
2019-02-05T05:51:02.808Z,99961.24
2019-02-05T05:53:29.528Z,99957.95
2019-02-05T05:55:56.360Z,99959.67
2019-02-05T05:58:23.636Z,99957.95
2019-02-05T06:00:50.672Z,99960.09
2019-02-05T06:03:17.526Z,99964.09
2019-02-05T06:05:44.279Z,99964.84
2019-02-05T06:08:11.448Z,99971.30
2019-02-05T06:10:38.376Z,99980.77
2019-02-05T06:13:08.996Z,99973.75
2019-02-05T06:15:36.179Z,99971.03
2019-02-05T06:18:03.012Z,99977.27
2019-02-05T06:20:32.139Z,99980.02
2019-02-05T06:22:58.984Z,99978.83
2019-02-05T06:25:25.810Z,99980.25
2019-02-05T06:27:53.320Z,99977.84
2019-02-05T06:30:20.192Z,99987.87
2019-02-05T06:32:47.030Z,99989.35
2019-02-05T06:35:13.871Z,99994.19
2019-02-05T06:37:40.763Z,99995.72
2019-02-05T06:40:09.017Z,100002.67
2019-02-05T06:42:38.277Z,100007.17
2019-02-05T06:45:07.810Z,99996.88
2019-02-05T06:47:34.834Z,99999.18
2019-02-05T06:50:01.574Z,99999.18
2019-02-05T06:52:28.420Z,99996.50
2019-02-05T06:54:55.262Z,99997.80
2019-02-05T06:57:24.254Z,100002.38
2019-02-05T06:59:51.024Z,100009.69
2019-02-05T07:02:18.362Z,100002.55
2019-02-05T07:04:45.122Z,100015.34
2019-02-05T07:07:11.886Z,100017.27
2019-02-05T07:09:38.654Z,100022.63
2019-02-05T07:12:05.520Z,100011.67
2019-02-05T07:14:36.565Z,100034.78
2019-02-05T07:17:03.658Z,100019.69
2019-02-05T07:19:31.285Z,100025.02
2019-02-05T07:21:58.197Z,100028.68
2019-02-05T07:24:25.038Z,100035.84
2019-02-05T07:26:57.570Z,100023.36
2019-02-05T07:29:24.356Z,100022.48
2019-02-05T07:31:51.286Z,100022.66
2019-02-05T07:34:21.153Z,100032.88
2019-02-05T07:36:46.996Z,100021.42
2019-02-05T07:39:14.113Z,100032.46
2019-02-05T07:41:40.834Z,100027.41
2019-02-05T07:44:07.780Z,100040.69
2019-02-05T07:46:34.639Z,100060.10
2019-02-05T07:49:01.662Z,100065.97
2019-02-05T07:51:29.201Z,100056.89
2019-02-05T07:53:59.488Z,100050.03
2019-02-05T07:56:26.390Z,100050.76
2019-02-05T07:58:55.838Z,100068.20
2019-02-05T08:01:22.602Z,100065.76
2019-02-05T08:03:49.376Z,100074.95
2019-02-05T08:06:19.274Z,100068.60
2019-02-05T08:08:46.074Z,100087.34
2019-02-05T08:11:12.824Z,100070.13
2019-02-05T08:13:39.584Z,100079.24
2019-02-05T08:16:06.622Z,100085.02
2019-02-05T08:18:36.776Z,100087.16
2019-02-05T08:21:04.409Z,100088.25
2019-02-05T08:23:31.240Z,100081.73
2019-02-05T08:25:58.256Z,100072.88
2019-02-05T08:28:25.008Z,100078.67
2019-02-05T08:30:53.890Z,100083.16
2019-02-05T08:33:21.195Z,100069.28
2019-02-05T08:35:48.104Z,100081.52
2019-02-05T08:38:15.045Z,100083.75
2019-02-05T08:40:42.436Z,100086.59
2019-02-05T08:43:09.492Z,100086.30
2019-02-05T08:45:36.523Z,100088.45
2019-02-05T08:48:04.122Z,100084.25
2019-02-05T08:50:31.119Z,100075.20
2019-02-05T08:52:57.917Z,100077.41
2019-02-05T08:55:24.686Z,100077.35
2019-02-05T08:57:52.778Z,100081.53
2019-02-05T09:00:21.949Z,100089.80
2019-02-05T09:02:48.828Z,100070.73
2019-02-05T09:05:15.769Z,100080.08
2019-02-05T09:07:42.992Z,100078.48
2019-02-05T09:10:13.957Z,100090.52
2019-02-05T09:12:40.872Z,100093.13
2019-02-05T09:15:12.952Z,100084.13
2019-02-05T09:17:40.116Z,100096.33
2019-02-05T09:20:09.621Z,100087.83
2019-02-05T09:22:36.477Z,100087.63
2019-02-05T09:25:04.161Z,100094.89
2019-02-05T09:27:30.953Z,100114.73
2019-02-05T09:30:00.236Z,100109.69
2019-02-05T09:32:34.870Z,100096.88
2019-02-05T09:34:56.702Z,100107.45
2019-02-05T09:37:23.896Z,100103.62
2019-02-05T09:39:50.797Z,100096.39
2019-02-05T09:42:17.759Z,100104.77
2019-02-05T09:44:44.634Z,100107.28
2019-02-05T09:47:11.482Z,100102.81
2019-02-05T09:49:38.321Z,100106.45
2019-02-05T09:52:07.291Z,100117.53
2019-02-05T09:54:34.370Z,100125.50
2019-02-05T09:57:01.402Z,100120.34
2019-02-05T09:59:28.837Z,100128.66
2019-02-05T10:01:55.693Z,100125.55
2019-02-05T10:04:23.166Z,100126.14
2019-02-05T10:06:50.264Z,100128.73
2019-02-05T10:09:17.267Z,100128.45
2019-02-05T10:11:44.281Z,100136.76
2019-02-05T10:14:11.106Z,100140.45
2019-02-05T10:16:38.007Z,100149.58
2019-02-05T10:19:04.851Z,100142.19
2019-02-05T10:21:31.639Z,100145.81
2019-02-05T10:23:58.415Z,100144.27
2019-02-05T10:26:26.382Z,100147.20
2019-02-05T10:28:54.972Z,100156.45
2019-02-05T10:31:21.830Z,100135.73
2019-02-05T10:33:55.368Z,100152.57
2019-02-05T10:36:18.900Z,100140.67
2019-02-05T10:38:46.085Z,100143.70
2019-02-05T10:41:13.465Z,100140.30
2019-02-05T10:43:41.633Z,100124.47
2019-02-05T10:46:08.795Z,100130.37
2019-02-05T10:48:38.615Z,100135.42
2019-02-05T10:51:08.431Z,100135.42
2019-02-05T10:53:38.291Z,100139.27
2019-02-05T10:56:05.599Z,100120.66
2019-02-05T10:58:32.915Z,100118.22
2019-02-05T11:01:00.019Z,100119.84
2019-02-05T11:03:27.253Z,100116.18
2019-02-05T11:05:55.818Z,100123.97
2019-02-05T11:08:26.025Z,100123.97
2019-02-05T11:10:52.926Z,100124.14
2019-02-05T11:13:19.881Z,100121.02
2019-02-05T11:15:47.041Z,100111.22
2019-02-05T11:18:13.909Z,100107.64
2019-02-05T11:20:42.953Z,100107.64
2019-02-05T11:23:09.827Z,100104.86
2019-02-05T11:25:36.739Z,100108.34
2019-02-05T11:28:03.703Z,100108.34
2019-02-05T11:30:35.660Z,100100.38
2019-02-05T11:33:02.475Z,100106.53
2019-02-05T11:35:30.028Z,100100.86
2019-02-05T11:37:57.118Z,100090.00
2019-02-05T11:40:27.932Z,100090.00
2019-02-05T11:42:54.825Z,100086.30
2019-02-05T11:45:21.706Z,100083.83
2019-02-05T11:47:48.835Z,100078.38
2019-02-05T11:50:16.235Z,100083.88
2019-02-05T11:52:43.965Z,100090.77
2019-02-05T11:55:14.122Z,100088.01
2019-02-05T11:57:40.983Z,100095.13
2019-02-05T12:00:12.221Z,100082.16
2019-02-05T12:02:39.100Z,100087.09
2019-02-05T12:05:06.746Z,100087.72
2019-02-05T12:07:33.648Z,100069.68
2019-02-05T12:10:00.583Z,100079.14
2019-02-05T12:12:27.593Z,100069.27
2019-02-05T12:14:54.858Z,100072.58
2019-02-05T12:17:23.309Z,100069.19
2019-02-05T12:19:50.119Z,100074.84
2019-02-05T12:22:17.408Z,100062.78
2019-02-05T12:24:46.537Z,100067.61
2019-02-05T12:27:13.318Z,100067.61
2019-02-05T12:29:40.567Z,100059.75
2019-02-05T12:32:09.344Z,100061.14
2019-02-05T12:34:37.207Z,100065.60
2019-02-05T12:37:04.159Z,100059.23
2019-02-05T12:39:31.411Z,100059.62
2019-02-05T12:41:58.478Z,100056.25
2019-02-05T12:44:25.530Z,100058.58
2019-02-05T12:46:52.635Z,100063.77
2019-02-05T12:49:20.317Z,99879.10
2019-02-05T12:51:47.658Z,100059.58
2019-02-05T12:54:14.921Z,100054.16
2019-02-05T12:56:44.014Z,100056.89
2019-02-05T12:59:10.849Z,100054.63
2019-02-05T13:01:37.947Z,100058.71
2019-02-05T13:04:06.411Z,100057.11
2019-02-05T13:06:33.304Z,100046.80
2019-02-05T13:09:00.206Z,100049.67
2019-02-05T13:11:27.657Z,100051.63
2019-02-05T13:13:54.400Z,100045.23
2019-02-05T13:16:21.215Z,100041.17
2019-02-05T13:18:48.240Z,100045.31
2019-02-05T13:21:15.244Z,100052.20
2019-02-05T13:23:42.212Z,100044.02
2019-02-05T13:26:09.406Z,100054.27
2019-02-05T13:28:36.476Z,100008.22
2019-02-05T13:31:08.282Z,100043.31
2019-02-05T13:33:32.671Z,100051.41
2019-02-05T13:35:59.448Z,100050.25
2019-02-05T13:38:29.432Z,100044.59
2019-02-05T13:40:56.502Z,100060.59
2019-02-05T13:43:23.360Z,100052.17
2019-02-05T13:45:50.801Z,100033.70
2019-02-05T13:48:18.583Z,100044.22
2019-02-05T13:50:45.493Z,100051.50
2019-02-05T13:53:12.571Z,100037.17
2019-02-05T13:55:41.445Z,100046.06
2019-02-05T13:58:09.187Z,100043.73
2019-02-05T14:00:42.881Z,100037.98
2019-02-05T14:03:09.786Z,100050.37
2019-02-05T14:05:36.894Z,100035.80
2019-02-05T14:08:04.159Z,100040.87
2019-02-05T14:10:31.163Z,100040.37
2019-02-05T14:12:58.364Z,100050.04
2019-02-05T14:15:31.339Z,100046.19
2019-02-05T14:17:58.526Z,100048.80
2019-02-05T14:20:25.736Z,100050.83
2019-02-05T14:22:52.510Z,100044.52
2019-02-05T14:25:19.402Z,100050.76
2019-02-05T14:27:46.474Z,100048.94
2019-02-05T14:30:20.470Z,100042.50
2019-02-05T14:32:47.327Z,100048.93
2019-02-05T14:35:14.106Z,100051.21
2019-02-05T14:37:41.162Z,100048.34
2019-02-05T14:40:11.315Z,100042.42
2019-02-05T14:42:38.638Z,100053.03
2019-02-05T14:45:07.322Z,100057.34
2019-02-05T14:47:34.282Z,100047.31
2019-02-05T14:50:01.530Z,100048.13
2019-02-05T14:52:28.970Z,100048.50
2019-02-05T14:54:55.730Z,100032.55
2019-02-05T14:57:22.742Z,100032.83
2019-02-05T14:59:49.461Z,100036.73
2019-02-05T15:02:16.472Z,100034.76
2019-02-05T15:04:44.810Z,100031.85
2019-02-05T15:07:11.791Z,100029.38
2019-02-05T15:09:38.516Z,100027.95
2019-02-05T15:12:05.851Z,100025.81
2019-02-05T15:14:37.425Z,100025.59
2019-02-05T15:17:04.663Z,100029.34
2019-02-05T15:19:32.623Z,100031.16
2019-02-05T15:21:59.789Z,100023.77
2019-02-05T15:24:37.110Z,100017.11
2019-02-05T15:26:55.757Z,100031.16
2019-02-05T15:29:22.657Z,100033.29
2019-02-05T15:31:54.593Z,100032.08
2019-02-05T15:34:28.916Z,100031.09
2019-02-05T15:36:55.983Z,100037.27
2019-02-05T15:39:25.021Z,100053.15
2019-02-05T15:41:52.314Z,100040.56
2019-02-05T15:44:19.159Z,100041.30
2019-02-05T15:46:48.155Z,100035.97
2019-02-05T15:49:15.189Z,100036.18
2019-02-05T15:51:42.018Z,100037.73
2019-02-05T15:54:08.886Z,100038.81
2019-02-05T15:56:35.844Z,100058.42
2019-02-05T15:59:02.708Z,100034.38
2019-02-05T16:01:29.526Z,100050.02
2019-02-05T16:03:59.805Z,100032.70
2019-02-05T16:06:26.715Z,100046.89
2019-02-05T16:08:54.182Z,100042.63
2019-02-05T16:11:21.196Z,100043.96
2019-02-05T16:13:47.957Z,100047.19
2019-02-05T16:16:14.777Z,100047.19
2019-02-05T16:18:42.233Z,100046.60
2019-02-05T16:21:09.003Z,100045.70
2019-02-05T16:23:35.820Z,100049.08
2019-02-05T16:26:02.801Z,100047.89
2019-02-05T16:28:29.685Z,100055.71
2019-02-05T16:30:56.870Z,100058.78
2019-02-05T16:33:23.625Z,100057.55
2019-02-05T16:35:52.100Z,100064.14
2019-02-05T16:38:19.180Z,100055.37
2019-02-05T16:40:45.903Z,100054.93
2019-02-05T16:43:12.833Z,100062.83
2019-02-05T16:45:39.689Z,100054.48
2019-02-05T16:48:06.643Z,100060.69
2019-02-05T16:50:36.162Z,100060.25
2019-02-05T16:53:03.645Z,100058.86
2019-02-05T16:55:31.205Z,100064.52
2019-02-05T16:57:58.855Z,100066.84
2019-02-05T17:00:30.409Z,100072.02
2019-02-05T17:02:58.409Z,100066.75
2019-02-05T17:05:25.913Z,100078.67
2019-02-05T17:07:52.635Z,100066.31
2019-02-05T17:10:19.521Z,100074.73
2019-02-05T17:12:46.461Z,100073.58
2019-02-05T17:15:14.188Z,100074.98
2019-02-05T17:17:40.969Z,100071.47
2019-02-05T17:20:10.659Z,100074.95
2019-02-05T17:22:39.659Z,100071.41
2019-02-05T17:25:07.818Z,100077.13
2019-02-05T17:27:34.623Z,100088.17
2019-02-05T17:30:01.747Z,100075.77
2019-02-05T17:32:39.747Z,100072.68
2019-02-05T17:34:57.424Z,100068.56
2019-02-05T17:37:24.464Z,100070.50
2019-02-05T17:39:51.258Z,100072.98
2019-02-05T17:42:18.054Z,100071.76
2019-02-05T17:44:45.900Z,100057.40
2019-02-05T17:47:13.688Z,100063.39
2019-02-05T17:49:40.417Z,100064.60
2019-02-05T17:52:07.253Z,100058.95
2019-02-05T17:54:34.221Z,100064.41
2019-02-05T17:57:01.628Z,100062.56
2019-02-05T17:59:28.478Z,100066.39
2019-02-05T18:01:55.348Z,100065.75
2019-02-05T18:04:22.269Z,100063.10
2019-02-05T18:06:52.197Z,100061.88
2019-02-05T18:09:19.079Z,100071.30
2019-02-05T18:11:45.854Z,100073.55
2019-02-05T18:14:12.634Z,100072.95
2019-02-05T18:16:45.211Z,100074.45
2019-02-05T18:19:11.376Z,100035.30
2019-02-05T18:21:38.657Z,100074.79
2019-02-05T18:24:05.402Z,100084.00
2019-02-05T18:26:32.195Z,100081.59
2019-02-05T18:28:58.960Z,100081.00
2019-02-05T18:31:25.806Z,100079.80
2019-02-05T18:33:54.128Z,100082.96
2019-02-05T18:36:21.142Z,100085.50
2019-02-05T18:38:47.882Z,100078.45
2019-02-05T18:41:16.941Z,100081.44
2019-02-05T18:43:43.774Z,100085.55
2019-02-05T18:46:12.672Z,100078.51
2019-02-05T18:48:39.495Z,100073.69
2019-02-05T18:51:06.338Z,100079.42
2019-02-05T18:53:35.286Z,100074.56
2019-02-05T18:56:02.666Z,100074.56
2019-02-05T18:58:30.011Z,100065.98
2019-02-05T19:00:56.973Z,100068.52
2019-02-05T19:03:24.757Z,100072.34
2019-02-05T19:05:51.960Z,100076.38
2019-02-05T19:08:18.862Z,100078.03
2019-02-05T19:10:46.580Z,100072.34
2019-02-05T19:13:13.426Z,100083.91
2019-02-05T19:15:40.209Z,100086.78
2019-02-05T19:18:07.631Z,100086.78
2019-02-05T19:20:34.505Z,100079.41
2019-02-05T19:23:01.700Z,100091.19
2019-02-05T19:25:47.422Z,100091.19
2019-02-05T19:28:20.723Z,100093.86
2019-02-05T19:30:48.779Z,100093.86
2019-02-05T19:33:26.468Z,100100.28
2019-02-05T19:35:44.579Z,100101.56
2019-02-05T19:38:13.557Z,100097.89
2019-02-05T19:40:40.480Z,100097.89
2019-02-05T19:43:07.360Z,100092.22
2019-02-05T19:46:06.378Z,100092.22
2019-02-05T19:48:38.324Z,100093.48
2019-02-05T19:51:05.656Z,100096.76
2019-02-05T19:53:32.480Z,100088.67
2019-02-05T19:55:59.858Z,100088.67
2019-02-05T19:58:26.737Z,100086.30
2019-02-05T20:00:54.009Z,100080.00
2019-02-05T20:03:22.148Z,100080.00
2019-02-05T20:05:49.357Z,100091.11
2019-02-05T20:08:16.374Z,100094.87
2019-02-05T20:10:43.273Z,100081.42
2019-02-05T20:13:10.997Z,100077.36
2019-02-05T20:15:38.076Z,100090.62
2019-02-05T20:18:04.817Z,100077.17
2019-02-05T20:20:31.971Z,100088.61
2019-02-05T20:22:58.838Z,100085.05
2019-02-05T20:25:25.718Z,100083.19
2019-02-05T20:27:52.596Z,100091.15
2019-02-05T20:30:19.485Z,100090.91
2019-02-05T20:32:49.078Z,100074.89
2019-02-05T20:35:15.878Z,100086.08
2019-02-05T20:37:43.044Z,100086.88
2019-02-05T20:40:14.421Z,100075.64
2019-02-05T20:42:42.814Z,100075.64
2019-02-05T20:45:10.014Z,100096.08
2019-02-05T20:47:37.066Z,100085.70
2019-02-05T20:50:06.380Z,100096.41
2019-02-05T20:52:34.322Z,100074.77
2019-02-05T20:55:03.758Z,100087.95
2019-02-05T20:57:30.925Z,100069.91
2019-02-05T20:59:58.363Z,100059.83
2019-02-05T21:02:25.291Z,100062.56
2019-02-05T21:04:52.291Z,100062.56
2019-02-05T21:07:19.472Z,100064.68
2019-02-05T21:09:49.314Z,100058.84
2019-02-05T21:12:16.340Z,100058.84
2019-02-05T21:14:43.338Z,100064.67
2019-02-05T21:17:10.706Z,100064.05
2019-02-05T21:19:37.605Z,100065.52
2019-02-05T21:22:04.774Z,100063.37
2019-02-05T21:24:31.552Z,100059.95
2019-02-05T21:26:58.435Z,100057.95
2019-02-05T21:29:25.667Z,100061.73
2019-02-05T21:31:52.849Z,100057.88
2019-02-05T21:34:21.567Z,100057.13
2019-02-05T21:36:48.918Z,100067.33
2019-02-05T21:39:16.454Z,100071.40
2019-02-05T21:41:43.190Z,100066.12
2019-02-05T21:44:12.867Z,100065.14
2019-02-05T21:46:39.616Z,100064.60
2019-02-05T21:49:06.859Z,100073.53
2019-02-05T21:51:40.501Z,100095.66
2019-02-05T21:54:02.221Z,100078.19
2019-02-05T21:56:29.552Z,100067.63
2019-02-05T21:58:56.579Z,100080.86
2019-02-05T22:01:23.381Z,100078.30
2019-02-05T22:03:50.201Z,100075.09
2019-02-05T22:06:17.105Z,100077.08
2019-02-05T22:08:43.796Z,100076.45
2019-02-05T22:11:10.661Z,100073.09
2019-02-05T22:13:37.338Z,100073.61
2019-02-05T22:16:04.222Z,100068.83
2019-02-05T22:18:31.640Z,100073.41
2019-02-05T22:20:58.559Z,100075.92
2019-02-05T22:23:25.343Z,100064.12
2019-02-05T22:25:52.316Z,100081.28
2019-02-05T22:28:20.658Z,100076.12
2019-02-05T22:30:47.828Z,100064.65
2019-02-05T22:33:15.141Z,100061.84
2019-02-05T22:35:41.883Z,100065.08
2019-02-05T22:38:08.640Z,100066.23
2019-02-05T22:40:35.470Z,100065.47
2019-02-05T22:43:02.524Z,100064.64
2019-02-05T22:45:29.629Z,100066.70
2019-02-05T22:47:56.399Z,100065.90
2019-02-05T22:50:24.687Z,100069.25
2019-02-05T22:52:52.189Z,100067.71
2019-02-05T22:55:18.965Z,100072.11
2019-02-05T22:57:45.683Z,100074.61
2019-02-05T23:00:47.630Z,100069.75
2019-02-05T23:03:16.917Z,100072.68
2019-02-05T23:06:29.107Z,100071.09
2019-02-05T23:09:00.881Z,100079.77
2019-02-05T23:11:52.113Z,100065.67
2019-02-05T23:14:19.455Z,100072.81
2019-02-05T23:16:46.217Z,100066.19
2019-02-05T23:19:13.261Z,100065.94
2019-02-05T23:21:40.359Z,100075.16
2019-02-05T23:24:07.205Z,100052.89
2019-02-05T23:26:34.092Z,100057.09
2019-02-05T23:29:00.940Z,100058.83
2019-02-05T23:31:30.673Z,100049.02
2019-02-05T23:34:00.546Z,100047.46
2019-02-05T23:36:29.090Z,100052.30
2019-02-05T23:38:59.837Z,100047.23
2019-02-05T23:41:26.613Z,100048.16
2019-02-05T23:43:53.367Z,100049.22
2019-02-05T23:46:20.643Z,100049.67
2019-02-05T23:48:47.634Z,100032.18
2019-02-05T23:51:14.497Z,100034.56
2019-02-05T23:53:41.249Z,100034.45
2019-02-05T23:56:10.308Z,100041.11
2019-02-05T23:58:37.017Z,100030.28
